createdAt,value
2022-07-29T00:01:19.276Z,17.96
2022-07-29T00:03:47.314Z,17.94
2022-07-29T00:06:16.470Z,17.92
2022-07-29T00:08:43.825Z,17.88
2022-07-29T00:11:11.109Z,17.89
2022-07-29T00:13:38.399Z,17.88
2022-07-29T00:16:06.078Z,17.88
2022-07-29T00:18:33.894Z,17.87
2022-07-29T00:21:01.237Z,17.87
2022-07-29T00:23:29.239Z,17.87
2022-07-29T00:25:57.076Z,17.86
2022-07-29T00:28:24.249Z,17.88
2022-07-29T00:30:51.589Z,17.86
2022-07-29T00:33:18.878Z,17.85
2022-07-29T00:35:46.051Z,17.84
2022-07-29T00:38:19.240Z,17.82
2022-07-29T00:40:47.893Z,17.82
2022-07-29T00:43:16.216Z,17.80
2022-07-29T00:45:44.124Z,17.78
2022-07-29T00:48:11.519Z,17.74
2022-07-29T00:50:39.383Z,17.72
2022-07-29T00:53:12.917Z,17.70
2022-07-29T00:55:40.182Z,17.70
2022-07-29T00:58:08.260Z,17.70
2022-07-29T01:00:35.791Z,17.69
2022-07-29T01:03:02.996Z,17.69
2022-07-29T01:05:48.458Z,17.71
2022-07-29T01:08:21.203Z,17.69
2022-07-29T01:10:50.083Z,17.67
2022-07-29T01:13:18.467Z,17.70
2022-07-29T01:15:56.594Z,17.69
2022-07-29T01:18:38.827Z,17.65
2022-07-29T01:21:11.989Z,17.64
2022-07-29T01:24:32.423Z,17.65
2022-07-29T01:27:33.534Z,17.67
2022-07-29T01:30:05.149Z,17.70
2022-07-29T01:32:40.274Z,17.69
2022-07-29T01:35:35.086Z,17.71
2022-07-29T01:38:23.163Z,17.73
2022-07-29T01:41:11.541Z,17.73
2022-07-29T01:44:00.309Z,17.71
2022-07-29T01:46:40.656Z,17.68
2022-07-29T01:49:21.415Z,17.67
2022-07-29T01:52:06.506Z,17.64
2022-07-29T01:54:46.853Z,17.61
2022-07-29T01:57:20.835Z,17.58
2022-07-29T01:59:51.986Z,17.52
2022-07-29T02:02:21.792Z,17.45
2022-07-29T02:04:51.346Z,17.36
2022-07-29T02:07:23.129Z,17.26
2022-07-29T02:09:53.882Z,17.16
2022-07-29T02:12:25.107Z,17.01
2022-07-29T02:14:57.262Z,16.82
2022-07-29T02:17:40.860Z,16.63
2022-07-29T02:20:10.746Z,16.45
2022-07-29T02:22:42.029Z,16.28
2022-07-29T02:25:13.750Z,16.12
2022-07-29T02:27:44.205Z,15.97
2022-07-29T02:30:13.667Z,15.85
2022-07-29T02:32:43.205Z,15.78
2022-07-29T02:35:14.517Z,15.71
2022-07-29T02:37:45.542Z,15.66
2022-07-29T02:40:16.237Z,15.63
2022-07-29T02:42:47.437Z,15.58
2022-07-29T02:45:14.678Z,15.56
2022-07-29T02:47:50.635Z,15.49
2022-07-29T02:50:35.741Z,15.42
2022-07-29T02:53:23.511Z,15.35
2022-07-29T02:55:59.985Z,15.28
2022-07-29T02:58:41.509Z,15.26
2022-07-29T03:01:24.862Z,15.21
2022-07-29T03:03:56.046Z,15.17
2022-07-29T03:06:37.968Z,15.12
2022-07-29T03:09:13.483Z,15.06
2022-07-29T03:11:50.610Z,15.03
2022-07-29T03:14:21.001Z,15.04
2022-07-29T03:16:50.617Z,15.02
2022-07-29T03:19:20.055Z,14.99
2022-07-29T03:21:47.868Z,14.98
2022-07-29T03:24:37.261Z,14.97
2022-07-29T03:27:06.481Z,14.95
2022-07-29T03:29:34.839Z,14.91
2022-07-29T03:32:08.397Z,14.86
2022-07-29T03:34:38.891Z,14.84
2022-07-29T03:37:07.454Z,14.86
2022-07-29T03:39:42.429Z,14.86
2022-07-29T03:42:16.228Z,14.83
2022-07-29T03:44:49.855Z,14.78
2022-07-29T03:47:23.683Z,14.74
2022-07-29T03:50:16.300Z,14.74
2022-07-29T03:52:43.719Z,14.74
2022-07-29T03:55:15.158Z,14.76
2022-07-29T03:57:46.112Z,14.80
2022-07-29T04:00:16.505Z,14.80
2022-07-29T04:02:50.066Z,14.79
2022-07-29T04:05:19.883Z,14.79
2022-07-29T04:07:49.552Z,14.80
2022-07-29T04:10:30.171Z,14.82
2022-07-29T04:13:00.898Z,14.87
2022-07-29T04:15:31.113Z,14.92
2022-07-29T04:18:00.359Z,14.91
2022-07-29T04:20:28.013Z,14.91
2022-07-29T04:22:55.306Z,14.88
2022-07-29T04:25:22.622Z,14.85
2022-07-29T04:28:01.992Z,14.87
2022-07-29T04:30:31.791Z,14.84
2022-07-29T04:32:59.770Z,14.84
2022-07-29T04:35:28.121Z,14.84
2022-07-29T04:37:55.341Z,14.85
2022-07-29T04:40:22.704Z,14.84
2022-07-29T04:42:49.967Z,14.84
2022-07-29T04:45:22.488Z,14.84
2022-07-29T04:47:51.119Z,14.88
2022-07-29T04:50:18.619Z,14.86
2022-07-29T04:52:45.999Z,14.90
2022-07-29T04:55:13.388Z,14.85
2022-07-29T04:57:40.578Z,14.84
2022-07-29T05:00:10.253Z,14.84
2022-07-29T05:02:37.571Z,14.84
2022-07-29T05:05:05.606Z,14.83
2022-07-29T05:07:32.847Z,14.85
2022-07-29T05:10:00.426Z,14.88
2022-07-29T05:12:28.747Z,14.89
2022-07-29T05:14:56.090Z,14.91
2022-07-29T05:17:23.305Z,14.91
2022-07-29T05:19:52.230Z,14.93
2022-07-29T05:22:21.716Z,14.96
2022-07-29T05:24:49.009Z,14.99
2022-07-29T05:27:16.378Z,15.01
2022-07-29T05:29:45.722Z,15.02
2022-07-29T05:32:16.381Z,15.02
2022-07-29T05:34:50.344Z,15.04
2022-07-29T05:37:21.225Z,15.08
2022-07-29T05:39:56.348Z,15.11
2022-07-29T05:42:26.863Z,15.11
2022-07-29T05:44:54.717Z,15.10
2022-07-29T05:47:22.616Z,15.08
2022-07-29T05:49:50.039Z,15.09
2022-07-29T05:52:17.857Z,15.13
2022-07-29T05:54:45.222Z,15.14
2022-07-29T05:57:22.969Z,15.19
2022-07-29T05:59:52.285Z,15.18
2022-07-29T06:02:19.853Z,15.17
2022-07-29T06:04:47.195Z,15.16
2022-07-29T06:07:14.465Z,15.16
2022-07-29T06:09:41.718Z,15.17
2022-07-29T06:12:09.630Z,15.15
2022-07-29T06:14:37.028Z,15.16
2022-07-29T06:17:04.792Z,15.18
2022-07-29T06:19:32.045Z,15.20
2022-07-29T06:21:59.486Z,15.21
2022-07-29T06:24:26.782Z,15.25
2022-07-29T06:26:53.961Z,15.27
2022-07-29T06:29:21.266Z,15.31
2022-07-29T06:31:48.497Z,15.35
2022-07-29T06:34:16.677Z,15.37
2022-07-29T06:36:45.019Z,15.43
2022-07-29T06:39:13.691Z,15.47
2022-07-29T06:41:41.034Z,15.50
2022-07-29T06:44:11.155Z,15.56
2022-07-29T06:46:38.474Z,15.60
2022-07-29T06:49:07.000Z,15.65
2022-07-29T06:51:34.982Z,15.73
2022-07-29T06:54:03.730Z,15.79
2022-07-29T06:56:40.234Z,15.86
2022-07-29T06:59:10.616Z,15.92
2022-07-29T07:01:44.172Z,16.03
2022-07-29T07:04:13.366Z,16.10
2022-07-29T07:06:40.913Z,16.19
2022-07-29T07:09:08.328Z,16.20
2022-07-29T07:11:35.919Z,16.23
2022-07-29T07:14:04.363Z,16.27
2022-07-29T07:16:33.130Z,16.34
2022-07-29T07:19:01.544Z,16.36
2022-07-29T07:21:30.674Z,16.40
2022-07-29T07:23:59.726Z,16.45
2022-07-29T07:26:28.093Z,16.51
2022-07-29T07:28:55.657Z,16.61
2022-07-29T07:31:23.376Z,16.64
2022-07-29T07:33:50.580Z,16.64
2022-07-29T07:36:17.755Z,16.69
2022-07-29T07:38:45.093Z,16.75
2022-07-29T07:41:12.377Z,16.81
2022-07-29T07:43:39.554Z,16.82
2022-07-29T07:46:06.900Z,16.77
2022-07-29T07:48:35.809Z,16.76
2022-07-29T07:51:03.269Z,16.75
2022-07-29T07:53:31.454Z,16.77
2022-07-29T07:56:15.472Z,16.81
2022-07-29T07:58:42.826Z,16.83
2022-07-29T08:01:10.994Z,16.84
2022-07-29T08:03:39.814Z,16.86
2022-07-29T08:06:07.524Z,16.86
2022-07-29T08:08:34.770Z,16.91
2022-07-29T08:11:08.356Z,16.94
2022-07-29T08:13:38.133Z,16.98
2022-07-29T08:16:16.021Z,17.06
2022-07-29T08:18:46.391Z,17.13
2022-07-29T08:21:16.412Z,17.18
2022-07-29T08:23:57.999Z,17.22
2022-07-29T08:26:27.116Z,17.35
2022-07-29T08:28:54.512Z,17.50
2022-07-29T08:31:21.897Z,17.72
2022-07-29T08:33:49.124Z,17.99
2022-07-29T08:36:17.019Z,18.36
2022-07-29T08:38:44.299Z,18.79
2022-07-29T08:41:11.603Z,19.20
2022-07-29T08:43:41.912Z,19.66
2022-07-29T08:46:09.248Z,20.08
2022-07-29T08:48:37.992Z,20.49
2022-07-29T08:51:08.938Z,20.89
2022-07-29T08:53:39.092Z,21.35
2022-07-29T08:56:07.431Z,21.83
2022-07-29T08:58:36.915Z,22.20
2022-07-29T09:01:07.634Z,22.59
2022-07-29T09:03:41.583Z,22.94
2022-07-29T09:06:09.458Z,23.26
2022-07-29T09:08:36.660Z,23.44
2022-07-29T09:11:05.313Z,23.39
2022-07-29T09:13:33.304Z,23.37
2022-07-29T09:16:03.494Z,23.29
2022-07-29T09:18:44.561Z,23.36
2022-07-29T09:21:37.339Z,23.47
2022-07-29T09:24:13.345Z,23.74
2022-07-29T09:26:46.585Z,23.94
2022-07-29T09:29:24.430Z,24.05
2022-07-29T09:31:55.149Z,24.30
2022-07-29T09:34:32.450Z,24.62
2022-07-29T09:36:59.718Z,24.96
2022-07-29T09:39:38.836Z,25.33
2022-07-29T09:42:07.931Z,25.61
2022-07-29T09:44:51.594Z,25.97
2022-07-29T09:47:22.775Z,26.29
2022-07-29T09:50:01.921Z,26.58
2022-07-29T09:52:31.286Z,26.92
2022-07-29T09:55:17.847Z,27.17
2022-07-29T09:57:47.776Z,27.45
2022-07-29T10:00:20.960Z,27.57
2022-07-29T10:02:49.910Z,27.75
2022-07-29T10:05:36.909Z,27.95
2022-07-29T10:08:04.804Z,28.06
2022-07-29T10:10:36.603Z,28.11
2022-07-29T10:13:16.344Z,28.08
2022-07-29T10:15:47.292Z,28.04
2022-07-29T10:18:18.500Z,28.14
2022-07-29T10:20:46.229Z,28.23
2022-07-29T10:23:13.706Z,28.30
2022-07-29T10:25:46.066Z,28.25
2022-07-29T10:28:16.452Z,28.34
2022-07-29T10:30:46.536Z,28.35
2022-07-29T10:33:52.451Z,28.38
2022-07-29T10:37:19.570Z,28.33
2022-07-29T10:41:19.305Z,28.46
2022-07-29T10:43:51.338Z,28.79
2022-07-29T10:46:20.443Z,29.01
2022-07-29T10:49:17.558Z,28.92
2022-07-29T10:52:11.457Z,28.98
2022-07-29T10:54:48.456Z,28.97
2022-07-29T10:57:53.948Z,29.03
2022-07-29T11:00:31.825Z,29.21
2022-07-29T11:03:00.985Z,29.38
2022-07-29T11:05:59.440Z,29.28
2022-07-29T11:08:28.277Z,29.30
2022-07-29T11:11:22.400Z,29.53
2022-07-29T11:13:57.046Z,29.74
2022-07-29T11:16:24.994Z,29.95
2022-07-29T11:21:59.474Z,30.15
2022-07-29T11:24:33.048Z,30.33
2022-07-29T11:27:21.172Z,30.56
2022-07-29T11:30:04.672Z,30.66
2022-07-29T11:32:48.444Z,30.74
2022-07-29T11:35:38.382Z,30.77
2022-07-29T11:41:31.711Z,31.09
2022-07-29T11:44:02.639Z,31.20
2022-07-29T11:46:53.882Z,31.26
2022-07-29T11:49:32.062Z,31.28
2022-07-29T11:52:04.428Z,31.02
2022-07-29T11:54:38.681Z,30.68
2022-07-29T11:57:36.310Z,30.34
2022-07-29T12:00:12.484Z,30.07
2022-07-29T12:02:48.281Z,29.79
2022-07-29T12:05:24.012Z,29.44
2022-07-29T12:08:22.608Z,29.00
2022-07-29T12:10:52.241Z,28.66
2022-07-29T12:13:22.444Z,28.33
2022-07-29T12:15:59.723Z,27.99
2022-07-29T12:18:28.012Z,27.72
2022-07-29T12:21:04.672Z,27.55
2022-07-29T12:23:34.837Z,27.34
2022-07-29T12:26:07.691Z,27.20
2022-07-29T12:28:39.959Z,27.08
2022-07-29T12:31:44.170Z,27.05
2022-07-29T12:34:04.441Z,27.04
2022-07-29T12:36:31.879Z,26.99
2022-07-29T12:38:59.180Z,26.87
2022-07-29T12:41:29.981Z,26.76
2022-07-29T12:43:57.593Z,26.75
2022-07-29T12:46:24.856Z,26.72
2022-07-29T12:48:59.498Z,26.74
2022-07-29T12:51:41.581Z,26.69
2022-07-29T12:54:12.417Z,26.71
2022-07-29T12:56:44.155Z,26.83
2022-07-29T12:59:23.102Z,26.98
2022-07-29T13:01:53.164Z,27.07
2022-07-29T13:04:34.316Z,27.25
2022-07-29T13:07:08.361Z,27.43
2022-07-29T13:09:45.722Z,27.55
2022-07-29T13:12:15.434Z,27.68
2022-07-29T13:14:47.545Z,27.77
2022-07-29T13:17:17.038Z,27.81
2022-07-29T13:19:51.792Z,27.83
2022-07-29T13:22:23.573Z,27.78
2022-07-29T13:24:53.555Z,27.67
2022-07-29T13:27:33.954Z,27.48
2022-07-29T13:30:06.461Z,27.36
2022-07-29T13:32:37.483Z,27.22
2022-07-29T13:35:09.847Z,27.23
2022-07-29T13:37:39.492Z,27.28
2022-07-29T13:40:10.219Z,27.61
2022-07-29T13:42:38.383Z,27.82
2022-07-29T13:45:07.762Z,28.14
2022-07-29T13:47:35.351Z,28.41
2022-07-29T13:50:06.224Z,28.92
2022-07-29T13:52:35.518Z,29.46
2022-07-29T13:55:04.241Z,29.83
2022-07-29T13:57:31.921Z,30.30
2022-07-29T13:59:59.284Z,30.71
2022-07-29T14:02:26.569Z,31.11
2022-07-29T14:04:55.484Z,31.48
2022-07-29T14:07:23.728Z,31.72
2022-07-29T14:09:51.773Z,31.90
2022-07-29T14:12:19.961Z,32.33
2022-07-29T14:14:47.783Z,32.71
2022-07-29T14:17:16.611Z,32.90
2022-07-29T14:19:44.052Z,33.00
2022-07-29T14:22:11.312Z,33.25
2022-07-29T14:24:40.279Z,33.43
2022-07-29T14:27:09.150Z,33.63
2022-07-29T14:29:38.768Z,33.76
2022-07-29T14:32:15.854Z,33.71
2022-07-29T14:34:43.094Z,33.72
2022-07-29T14:37:15.862Z,33.73
2022-07-29T14:39:43.637Z,33.86
2022-07-29T14:42:13.021Z,33.95
2022-07-29T14:44:42.505Z,33.71
2022-07-29T14:47:10.399Z,32.98
2022-07-29T14:49:37.883Z,32.63
2022-07-29T14:52:06.106Z,32.81
2022-07-29T14:54:33.933Z,33.08
2022-07-29T14:57:01.225Z,33.34
2022-07-29T14:59:28.461Z,33.56
2022-07-29T15:01:55.905Z,33.78
2022-07-29T15:04:23.579Z,33.77
2022-07-29T15:06:51.143Z,33.64
2022-07-29T15:09:18.958Z,33.54
2022-07-29T15:11:46.180Z,33.69
2022-07-29T15:14:13.629Z,33.74
2022-07-29T15:16:43.955Z,33.81
2022-07-29T15:19:14.154Z,33.81
2022-07-29T15:21:48.428Z,33.85
2022-07-29T15:24:20.560Z,33.83
2022-07-29T15:26:48.703Z,33.72
2022-07-29T15:29:16.384Z,33.78
2022-07-29T15:31:44.532Z,33.90
2022-07-29T15:34:11.843Z,33.80
2022-07-29T15:36:54.752Z,33.74
2022-07-29T15:39:23.530Z,33.62
2022-07-29T15:41:52.132Z,33.37
2022-07-29T15:44:21.183Z,33.26
2022-07-29T15:47:06.124Z,33.24
2022-07-29T15:49:47.607Z,32.53
2022-07-29T15:52:25.807Z,31.91
2022-07-29T15:54:57.835Z,31.70
2022-07-29T15:57:25.995Z,30.88
2022-07-29T15:59:53.702Z,30.13
2022-07-29T16:02:21.192Z,29.46
2022-07-29T16:04:48.727Z,28.94
2022-07-29T16:07:16.508Z,28.57
2022-07-29T16:09:49.370Z,28.23
2022-07-29T16:12:18.383Z,27.88
2022-07-29T16:14:46.046Z,27.62
2022-07-29T16:17:14.763Z,27.43
2022-07-29T16:19:44.543Z,27.34
2022-07-29T16:22:13.218Z,27.32
2022-07-29T16:24:40.693Z,27.27
2022-07-29T16:27:08.651Z,27.28
2022-07-29T16:29:37.134Z,27.28
2022-07-29T16:32:06.557Z,27.21
2022-07-29T16:34:34.281Z,27.11
2022-07-29T16:37:01.750Z,27.02
2022-07-29T16:39:29.554Z,26.92
2022-07-29T16:42:00.025Z,26.90
2022-07-29T16:44:28.551Z,26.89
2022-07-29T16:46:58.055Z,26.82
2022-07-29T16:49:28.041Z,26.78
2022-07-29T16:51:55.549Z,26.77
2022-07-29T16:54:23.019Z,26.80
2022-07-29T16:56:50.268Z,26.83
2022-07-29T16:59:17.594Z,26.81
2022-07-29T17:01:44.886Z,26.76
2022-07-29T17:04:14.822Z,26.71
2022-07-29T17:06:42.895Z,26.69
2022-07-29T17:09:15.013Z,26.60
2022-07-29T17:11:54.049Z,26.49
2022-07-29T17:14:29.363Z,26.42
2022-07-29T17:17:02.206Z,26.41
2022-07-29T17:19:36.251Z,26.33
2022-07-29T17:22:14.305Z,26.18
2022-07-29T17:24:46.782Z,26.17
2022-07-29T17:27:15.065Z,26.15
2022-07-29T17:29:42.867Z,26.14
2022-07-29T17:32:10.867Z,26.14
2022-07-29T17:34:41.012Z,26.11
2022-07-29T17:37:12.219Z,26.09
2022-07-29T17:39:41.662Z,26.06
2022-07-29T17:42:13.174Z,26.02
2022-07-29T17:44:40.924Z,25.91
2022-07-29T17:47:15.985Z,25.84
2022-07-29T17:49:45.724Z,25.80
2022-07-29T17:52:13.240Z,25.79
2022-07-29T17:54:40.439Z,25.76
2022-07-29T17:57:08.145Z,25.69
2022-07-29T17:59:35.308Z,25.64
2022-07-29T18:02:02.653Z,25.61
2022-07-29T18:04:31.371Z,25.53
2022-07-29T18:06:58.850Z,25.45
2022-07-29T18:09:26.328Z,25.37
2022-07-29T18:11:53.620Z,25.33
2022-07-29T18:14:20.782Z,25.24
2022-07-29T18:16:48.080Z,25.17
2022-07-29T18:19:16.087Z,25.10
2022-07-29T18:21:53.459Z,25.04
2022-07-29T18:24:27.424Z,25.01
2022-07-29T18:26:54.942Z,24.94
2022-07-29T18:29:22.328Z,24.88
2022-07-29T18:31:50.097Z,24.84
2022-07-29T18:34:17.550Z,24.77
2022-07-29T18:36:46.094Z,24.69
2022-07-29T18:39:20.338Z,24.60
2022-07-29T18:41:51.640Z,24.54
2022-07-29T18:44:22.854Z,24.45
2022-07-29T18:46:52.437Z,24.37
2022-07-29T18:49:19.949Z,24.27
2022-07-29T18:51:48.901Z,24.17
2022-07-29T18:54:17.567Z,24.10
2022-07-29T18:56:46.938Z,24.06
2022-07-29T18:59:19.661Z,23.99
2022-07-29T19:01:48.861Z,23.94
2022-07-29T19:04:17.869Z,23.86
2022-07-29T19:06:45.592Z,23.77
2022-07-29T19:09:13.229Z,23.68
2022-07-29T19:11:40.644Z,23.57
2022-07-29T19:14:08.079Z,23.49
2022-07-29T19:16:35.872Z,23.41
2022-07-29T19:19:04.333Z,23.30
2022-07-29T19:21:31.657Z,23.18
2022-07-29T19:24:04.175Z,23.06
2022-07-29T19:26:43.980Z,22.98
2022-07-29T19:29:11.354Z,22.88
2022-07-29T19:31:40.956Z,22.78
2022-07-29T19:34:08.866Z,22.69
2022-07-29T19:36:36.539Z,22.61
2022-07-29T19:39:04.225Z,22.54
2022-07-29T19:41:31.675Z,22.47
2022-07-29T19:43:58.882Z,22.42
2022-07-29T19:46:28.961Z,22.38
2022-07-29T19:48:57.046Z,22.32
2022-07-29T19:51:24.593Z,22.27
2022-07-29T19:53:52.351Z,22.21
2022-07-29T19:56:19.639Z,22.17
2022-07-29T19:58:46.889Z,22.14
2022-07-29T20:01:15.227Z,22.08
2022-07-29T20:03:44.689Z,22.02
2022-07-29T20:06:12.649Z,21.95
2022-07-29T20:08:40.057Z,21.89
2022-07-29T20:11:07.501Z,21.83
2022-07-29T20:13:35.295Z,21.77
2022-07-29T20:16:05.592Z,21.71
2022-07-29T20:18:32.981Z,21.66
2022-07-29T20:21:01.378Z,21.61
2022-07-29T20:23:28.602Z,21.56
2022-07-29T20:26:01.323Z,21.53
2022-07-29T20:28:28.510Z,21.47
2022-07-29T20:30:55.778Z,21.42
2022-07-29T20:33:23.024Z,21.37
2022-07-29T20:35:50.297Z,21.32
2022-07-29T20:38:18.447Z,21.26
2022-07-29T20:40:46.234Z,21.21
2022-07-29T20:43:13.523Z,21.17
2022-07-29T20:45:40.793Z,21.11
2022-07-29T20:48:08.592Z,21.05
2022-07-29T20:50:36.109Z,20.98
2022-07-29T20:53:03.585Z,20.91
2022-07-29T20:55:32.003Z,20.84
2022-07-29T20:57:59.396Z,20.77
2022-07-29T21:00:28.471Z,20.72
2022-07-29T21:02:55.722Z,20.65
2022-07-29T21:05:23.296Z,20.56
2022-07-29T21:07:51.281Z,20.47
2022-07-29T21:10:20.861Z,20.36
2022-07-29T21:12:48.614Z,20.29
2022-07-29T21:15:16.336Z,20.21
2022-07-29T21:17:47.129Z,20.14
2022-07-29T21:20:19.582Z,20.09
2022-07-29T21:22:46.944Z,20.04
2022-07-29T21:25:14.160Z,20.02
2022-07-29T21:28:00.185Z,20.01
2022-07-29T21:30:27.453Z,19.99
2022-07-29T21:32:54.699Z,19.95
2022-07-29T21:36:01.570Z,19.94
2022-07-29T21:38:09.082Z,19.92
2022-07-29T21:40:36.405Z,19.91
2022-07-29T21:43:04.441Z,19.86
2022-07-29T21:45:31.665Z,19.83
2022-07-29T21:47:59.038Z,19.78
2022-07-29T21:50:26.602Z,19.75
2022-07-29T21:52:53.952Z,19.69
2022-07-29T21:55:22.857Z,19.64
2022-07-29T21:57:56.406Z,19.58
2022-07-29T22:00:25.658Z,19.53
2022-07-29T22:02:53.634Z,19.50
2022-07-29T22:05:21.662Z,19.49
2022-07-29T22:07:55.676Z,19.45
2022-07-29T22:10:26.989Z,19.39
2022-07-29T22:12:58.728Z,19.36
2022-07-29T22:15:27.585Z,19.31
2022-07-29T22:17:54.905Z,19.26
2022-07-29T22:20:22.541Z,19.23
2022-07-29T22:22:50.378Z,19.20
2022-07-29T22:25:17.858Z,19.15
2022-07-29T22:27:45.162Z,19.11
2022-07-29T22:30:13.781Z,19.08
2022-07-29T22:32:41.520Z,19.03
2022-07-29T22:35:10.358Z,18.98
2022-07-29T22:37:37.761Z,18.92
2022-07-29T22:40:06.447Z,18.85
2022-07-29T22:42:35.514Z,18.84
2022-07-29T22:45:03.463Z,18.81
2022-07-29T22:47:46.610Z,18.78
2022-07-29T22:50:17.129Z,18.74
2022-07-29T22:52:46.204Z,18.70
2022-07-29T22:55:14.446Z,18.67
2022-07-29T22:57:42.421Z,18.66
2022-07-29T23:00:10.866Z,18.63
2022-07-29T23:02:38.230Z,18.61
2022-07-29T23:05:06.734Z,18.61
2022-07-29T23:07:33.947Z,18.59
2022-07-29T23:10:02.186Z,18.53
2022-07-29T23:12:29.344Z,18.46
2022-07-29T23:14:56.517Z,18.42
2022-07-29T23:17:23.774Z,18.37
2022-07-29T23:19:51.107Z,18.30
2022-07-29T23:22:18.628Z,18.23
2022-07-29T23:24:45.969Z,18.17
2022-07-29T23:27:13.178Z,18.13
2022-07-29T23:29:40.376Z,18.10
2022-07-29T23:32:07.783Z,18.08
2022-07-29T23:34:34.933Z,18.04
2022-07-29T23:37:02.349Z,17.98
2022-07-29T23:39:29.975Z,17.91
2022-07-29T23:41:57.158Z,17.84
2022-07-29T23:44:24.580Z,17.78
2022-07-29T23:46:51.799Z,17.72
2022-07-29T23:49:19.125Z,17.68
2022-07-29T23:51:46.478Z,17.63
2022-07-29T23:54:13.709Z,17.58
2022-07-29T23:56:40.914Z,17.52
2022-07-29T23:59:08.096Z,17.44
